Time;durP1;ratioP1;P1;durP2;ratioP2;P2;SDS_P1;SDS_P2;PMS_P1;PMS_P2;Temp;Humidity;BMP_temperature;BMP_pressure;BME280_temperature;BME280_humidity;BME280_pressure;Samples;Min_cycle;Max_cycle;Signal;HPM_P1;HPM_P2
2023/05/12 00:00:15;;;;;;;;;37.67;27.67;;;;;13.10;85.52;101452.72;5035798;28;45510;-64
2023/05/12 00:02:40;;;;;;;;;37.00;31.67;;;;;13.03;86.36;101444.09;5049075;28;46137;-64
2023/05/12 00:05:06;;;;;;;;;38.33;31.67;;;;;13.02;86.48;101439.69;5041824;28;45467;-64
2023/05/12 00:07:31;;;;;;;;;37.67;33.33;;;;;12.99;87.41;101440.63;5055664;28;45347;-64
2023/05/12 00:09:57;;;;;;;;;33.33;31.00;;;;;12.98;86.96;101435.38;5056084;28;45364;-64
2023/05/12 00:12:22;;;;;;;;;33.00;32.00;;;;;12.95;87.09;101435.44;5055717;28;46111;-64
2023/05/12 00:14:47;;;;;;;;;40.67;32.33;;;;;12.92;87.48;101436.38;5048999;28;45873;-64
2023/05/12 00:17:13;;;;;;;;;32.33;31.33;;;;;12.97;86.92;101446.84;5035782;27;45480;-65
2023/05/12 00:19:41;;;;;;;;;36.67;32.33;;;;;12.96;87.42;101445.13;5036583;28;45550;-65
2023/05/12 00:22:06;;;;;;;;;40.33;32.33;;;;;12.81;88.06;101415.47;5038897;28;46611;-65
2023/05/12 00:24:32;;;;;;;;;36.67;30.33;;;;;12.89;87.43;101436.44;5035550;28;46434;-66
2023/05/12 00:26:57;;;;;;;;;38.00;34.00;;;;;12.86;87.47;101432.06;5035621;28;45346;-65
2023/05/12 00:29:22;;;;;;;;;46.33;37.00;;;;;12.83;88.00;101440.06;5035465;28;45439;-66
2023/05/12 00:31:48;;;;;;;;;51.00;39.00;;;;;12.82;88.19;101432.19;5035230;28;46687;-65
2023/05/12 00:34:13;;;;;;;;;47.33;38.67;;;;;12.81;88.20;101433.97;5035414;28;45429;-65
2023/05/12 00:36:39;;;;;;;;;46.00;37.33;;;;;12.82;88.64;101440.09;5034387;27;45313;-66
2023/05/12 00:39:04;;;;;;;;;46.33;36.33;;;;;12.82;88.60;101443.63;5035711;28;45501;-66
2023/05/12 00:41:29;;;;;;;;;45.67;37.33;;;;;12.77;88.43;101431.44;5035143;28;46026;-66
2023/05/12 00:43:55;;;;;;;;;48.00;37.67;;;;;12.77;89.04;101432.28;5035356;28;45333;-66
2023/05/12 00:46:20;;;;;;;;;47.00;37.67;;;;;12.79;88.63;101432.25;5035025;28;45255;-66
2023/05/12 00:48:46;;;;;;;;;51.00;41.33;;;;;12.74;88.88;101427.06;5035629;28;45313;-66
2023/05/12 00:51:14;;;;;;;;;47.33;39.00;;;;;12.83;88.54;101439.22;5034921;28;45445;-66
2023/05/12 00:53:40;;;;;;;;;52.67;40.67;;;;;12.79;88.98;101434.91;5034600;28;45311;-65
2023/05/12 00:56:06;;;;;;;;;53.00;41.33;;;;;12.82;88.53;101434.81;5035263;28;45496;-66
2023/05/12 00:58:31;;;;;;;;;51.33;42.00;;;;;12.81;88.84;101427.78;5035394;27;45469;-65
2023/05/12 01:00:57;;;;;;;;;54.33;41.00;;;;;12.75;89.85;101417.34;5035187;28;45401;-66
2023/05/12 01:03:22;;;;;;;;;54.00;42.00;;;;;12.74;90.01;101416.50;5034851;28;45279;-65
2023/05/12 01:06:05;;;;;;;;;49.33;40.67;;;;;12.80;89.42;101420.78;5034975;28;45301;-65
2023/05/12 01:08:31;;;;;;;;;52.00;43.00;;;;;12.84;90.15;101425.09;5035364;28;45374;-65
2023/05/12 01:10:57;;;;;;;;;54.33;42.67;;;;;12.81;90.00;101419.84;5035017;28;45469;-65
2023/05/12 01:13:22;;;;;;;;;53.33;43.00;;;;;12.88;90.10;101425.00;5034786;28;45442;-65
2023/05/12 01:15:49;;;;;;;;;56.67;45.00;;;;;12.86;90.17;101416.22;5035197;28;45382;-65
2023/05/12 01:18:16;;;;;;;;;57.33;45.00;;;;;12.89;89.71;101424.09;5034820;28;45493;-65
2023/05/12 01:20:43;;;;;;;;;53.67;43.33;;;;;12.82;90.39;101409.28;5034657;28;45458;-65
2023/05/12 01:23:11;;;;;;;;;57.00;45.33;;;;;12.89;91.27;101420.56;5034835;28;45288;-65
2023/05/12 01:25:38;;;;;;;;;59.33;45.67;;;;;12.87;90.87;101412.69;5034794;28;45255;-65
2023/05/12 01:28:05;;;;;;;;;55.00;44.33;;;;;12.86;90.95;101407.44;5034830;28;45482;-66
2023/05/12 01:30:31;;;;;;;;;54.67;44.67;;;;;12.92;90.45;101415.22;5034517;28;47294;-65
2023/05/12 01:32:57;;;;;;;;;57.67;45.33;;;;;12.95;90.39;101419.56;5034658;28;45313;-65
2023/05/12 01:35:22;;;;;;;;;61.67;46.67;;;;;12.97;90.87;101420.41;5035043;28;45262;-65
2023/05/12 01:37:48;;;;;;;;;59.00;46.33;;;;;12.92;90.86;101409.94;5035092;28;45601;-65
2023/05/12 01:40:13;;;;;;;;;58.00;45.67;;;;;12.88;91.10;101405.63;5034689;28;45590;-65
2023/05/12 01:42:41;;;;;;;;;56.00;46.00;;;;;12.97;90.28;101410.72;5033276;28;45824;-65
2023/05/12 01:45:08;;;;;;;;;56.67;44.67;;;;;12.96;91.52;101416.03;5034615;28;45784;-65
2023/05/12 01:47:33;;;;;;;;;54.00;45.00;;;;;12.95;91.06;101416.94;5034769;27;45450;-66
2023/05/12 01:49:58;;;;;;;;;55.33;44.33;;;;;12.95;91.15;101409.00;5034510;28;45395;-66
2023/05/12 01:52:24;;;;;;;;;54.00;45.00;;;;;12.95;90.97;101416.94;5034649;28;45416;-66
2023/05/12 01:54:50;;;;;;;;;57.67;47.33;;;;;12.79;90.85;101385.53;5034623;28;45476;-66
2023/05/12 01:57:16;;;;;;;;;60.67;45.33;;;;;12.91;91.21;101418.78;5034846;28;45300;-66
2023/05/12 01:59:41;;;;;;;;;53.33;44.33;;;;;12.94;90.27;101416.06;5034681;28;45720;-66
2023/05/12 02:02:06;;;;;;;;;51.67;43.33;;;;;12.96;91.08;101424.81;5034083;28;45326;-66
2023/05/12 02:04:32;;;;;;;;;51.33;42.67;;;;;12.99;90.63;101426.53;5033020;28;45379;-66
2023/05/12 02:06:57;;;;;;;;;58.33;45.67;;;;;12.95;91.16;101409.00;5034561;28;45508;-66
2023/05/12 02:09:23;;;;;;;;;58.00;43.67;;;;;13.03;90.79;101425.56;5034559;27;46221;-66
2023/05/12 02:11:48;;;;;;;;;52.00;41.67;;;;;13.03;90.53;101428.22;5034499;28;45196;-66
2023/05/12 02:14:13;;;;;;;;;57.00;45.00;;;;;13.01;90.50;101420.31;5034440;28;45569;-66
2023/05/12 02:16:39;;;;;;;;;53.33;43.67;;;;;12.93;90.04;101411.69;5033556;28;45318;-66
2023/05/12 02:19:04;;;;;;;;;55.00;43.33;;;;;13.04;90.77;101425.53;5034614;27;45543;-66
2023/05/12 02:21:30;;;;;;;;;51.67;43.00;;;;;12.97;91.04;101410.72;5034157;28;45366;-66
2023/05/12 02:23:55;;;;;;;;;59.00;46.00;;;;;12.94;91.05;101397.56;5034510;28;45267;-65
2023/05/12 02:26:21;;;;;;;;;53.67;42.67;;;;;13.00;90.47;101401.84;5034391;28;45426;-65
2023/05/12 02:28:46;;;;;;;;;54.00;42.67;;;;;13.03;90.50;101404.44;5033694;28;46164;-65
2023/05/12 02:31:11;;;;;;;;;52.33;41.33;;;;;13.10;90.68;101410.44;5033349;28;45225;-65
2023/05/12 02:33:37;;;;;;;;;54.00;41.00;;;;;13.12;90.90;101408.63;5033929;27;45565;-66
2023/05/12 02:36:02;;;;;;;;;51.00;42.00;;;;;13.06;90.12;101407.00;5034423;28;45525;-66
2023/05/12 02:38:28;;;;;;;;;52.33;40.67;;;;;13.10;90.97;101413.06;5033803;28;46094;-66
2023/05/12 02:40:53;;;;;;;;;50.33;39.67;;;;;13.02;91.29;101400.03;5033987;28;45435;-66
2023/05/12 02:43:19;;;;;;;;;51.67;41.67;;;;;13.08;91.52;101407.81;5033111;28;45479;-65
2023/05/12 02:45:44;;;;;;;;;46.67;37.00;;;;;13.02;91.90;101389.47;5033402;27;45431;-65
2023/05/12 02:48:10;;;;;;;;;51.33;41.00;;;;;13.05;91.86;101406.09;5033701;28;45572;-65
2023/05/12 02:50:35;;;;;;;;;53.33;42.33;;;;;13.11;92.20;101412.19;5033730;28;45453;-65
2023/05/12 02:53:01;;;;;;;;;46.00;38.00;;;;;12.82;91.70;101359.06;5032719;28;45354;-65
2023/05/12 02:55:28;;;;;;;;;50.00;38.67;;;;;13.07;92.58;101400.81;5033605;27;45377;-65
2023/05/12 02:57:54;;;;;;;;;49.00;38.67;;;;;13.06;92.33;101402.56;5033521;28;46558;-66
2023/05/12 03:00:19;;;;;;;;;46.33;35.67;;;;;13.05;93.41;101400.81;5033674;28;45400;-66
2023/05/12 03:02:44;;;;;;;;;51.00;38.00;;;;;13.09;93.05;101401.63;5033545;28;45354;-66
2023/05/12 03:05:10;;;;;;;;;43.67;34.00;;;;;13.07;92.77;101399.03;5033977;28;45555;-66
2023/05/12 03:07:35;;;;;;;;;46.00;35.00;;;;;13.04;93.47;101387.63;5033334;28;46339;-65
2023/05/12 03:10:00;;;;;;;;;49.00;35.33;;;;;13.11;93.94;101397.16;5033386;28;45704;-65
2023/05/12 03:12:28;;;;;;;;;44.00;34.67;;;;;13.06;93.55;101388.50;5033744;28;45218;-66
2023/05/12 03:14:54;;;;;;;;;41.00;35.00;;;;;13.13;94.46;101394.50;5034103;28;45495;-65
2023/05/12 03:17:20;;;;;;;;;43.00;35.00;;;;;13.12;94.42;101392.78;5036406;28;45402;-65
2023/05/12 03:19:45;;;;;;;;;41.00;33.33;;;;;13.10;93.94;101382.22;5036185;28;45432;-66
2023/05/12 03:22:11;;;;;;;;;38.00;30.33;;;;;13.10;93.54;101387.53;5036665;28;45369;-65
2023/05/12 03:24:36;;;;;;;;;45.00;35.00;;;;;13.13;95.32;101384.81;5036862;28;45439;-65
2023/05/12 03:27:02;;;;;;;;;47.00;34.00;;;;;13.15;95.40;101393.56;5036414;28;46476;-65
2023/05/12 03:29:27;;;;;;;;;41.67;33.00;;;;;12.89;95.59;101343.94;5050243;28;45318;-65
2023/05/12 03:31:52;;;;;;;;;46.67;35.67;;;;;13.04;96.59;101370.03;5020690;28;45319;-65
2023/05/12 03:34:18;;;;;;;;;45.00;34.00;;;;;13.13;95.02;101387.44;5016691;27;45354;-65
2023/05/12 03:36:44;;;;;;;;;43.00;34.33;;;;;13.06;95.96;101370.84;5016378;27;46387;-65
2023/05/12 03:39:09;;;;;;;;;47.33;36.33;;;;;13.14;96.17;101383.91;5016418;28;45474;-65
2023/05/12 03:41:35;;;;;;;;;44.67;35.67;;;;;13.13;96.02;101382.16;5016581;28;45248;-65
2023/05/12 03:44:01;;;;;;;;;45.00;31.67;;;;;13.15;96.39;101377.69;5016630;28;45387;-65
2023/05/12 03:46:26;;;;;;;;;46.33;34.00;;;;;13.18;95.73;101382.91;5016052;28;45449;-66
2023/05/12 03:48:52;;;;;;;;;48.33;35.67;;;;;13.23;95.36;101390.75;5016207;28;45242;-65
2023/05/12 03:51:17;;;;;;;;;41.67;34.00;;;;;13.22;95.34;101378.44;5016485;28;45372;-65
2023/05/12 03:53:45;;;;;;;;;40.33;33.00;;;;;13.21;94.53;101374.91;5016699;28;45330;-65
2023/05/12 03:56:10;;;;;;;;;48.67;34.67;;;;;13.24;95.24;101385.44;5016196;28;47198;-65
2023/05/12 03:58:36;;;;;;;;;44.67;35.00;;;;;13.21;95.30;101381.97;5016004;28;45350;-65
2023/05/12 04:01:01;;;;;;;;;44.67;33.67;;;;;13.19;95.94;101374.06;5016295;28;45496;-65
2023/05/12 04:03:27;;;;;;;;;39.00;32.00;;;;;13.19;95.88;101382.00;5016141;28;45430;-65
2023/05/12 04:06:00;;;;;;;;;44.33;33.67;;;;;13.24;94.99;101390.72;5026902;28;46534;-66
2023/05/12 04:08:26;;;;;;;;;38.00;33.00;;;;;13.24;96.25;101385.44;5035938;28;45365;-65
2023/05/12 04:10:55;;;;;;;;;38.00;32.33;;;;;13.20;96.20;101378.47;5035904;28;45362;-65
2023/05/12 04:13:20;;;;;;;;;41.33;32.67;;;;;13.16;96.29;101371.50;5036304;28;45492;-66
2023/05/12 04:15:45;;;;;;;;;41.33;33.33;;;;;13.25;96.31;101381.00;5035721;28;46437;-66
2023/05/12 04:18:12;;;;;;;;;39.00;32.33;;;;;13.25;96.09;101383.63;5035519;28;45221;-66
2023/05/12 04:20:37;;;;;;;;;31.33;29.33;;;;;13.20;96.58;101370.53;5036060;28;45295;-66
2023/05/12 04:23:02;;;;;;;;;35.33;29.67;;;;;13.17;96.39;101361.78;5035986;28;45361;-65
2023/05/12 04:25:28;;;;;;;;;34.00;30.00;;;;;13.28;96.57;101382.72;5035729;28;46305;-66
2023/05/12 04:27:53;;;;;;;;;34.00;30.67;;;;;13.29;96.63;101382.66;5034633;28;45334;-66
2023/05/12 04:30:18;;;;;;;;;35.33;31.67;;;;;13.21;97.10;101374.91;5035589;28;45353;-66
2023/05/12 04:32:44;;;;;;;;;32.00;27.00;;;;;13.23;96.97;101372.25;5036477;27;45387;-66
2023/05/12 04:35:09;;;;;;;;;28.33;25.00;;;;;13.23;96.22;101373.09;5035327;28;47194;-66
2023/05/12 04:37:34;;;;;;;;;36.67;26.00;;;;;13.24;97.18;101372.19;5035479;28;45488;-66
2023/05/12 04:40:00;;;;;;;;;36.00;28.33;;;;;13.17;96.36;101370.59;5035666;28;45421;-66
2023/05/12 04:42:25;;;;;;;;;29.67;26.00;;;;;13.19;97.49;101373.22;5031039;28;45436;-66
2023/05/12 04:44:50;;;;;;;;;28.33;26.33;;;;;13.24;96.72;101379.25;5017515;28;46798;-66
2023/05/12 04:47:16;;;;;;;;;37.00;30.67;;;;;13.23;100.00;101388.13;5025648;28;45445;-65
2023/05/12 04:49:41;;;;;;;;;25.33;22.00;;;;;13.25;100.00;101391.56;5015751;28;45350;-65
2023/05/12 04:52:06;;;;;;;;;24.67;22.00;;;;;13.19;100.00;101381.16;5015783;28;45237;-66
2023/05/12 04:54:32;;;;;;;;;24.00;22.67;;;;;13.20;99.41;101383.75;5015489;28;45434;-66
2023/05/12 04:56:57;;;;;;;;;22.00;19.33;;;;;13.26;98.89;101390.69;5015451;28;45351;-66
2023/05/12 04:59:23;;;;;;;;;23.33;17.33;;;;;13.24;98.55;101393.34;5015468;28;45302;-65
2023/05/12 05:01:49;;;;;;;;;25.33;22.00;;;;;13.20;99.28;101388.16;5015849;28;45290;-65
2023/05/12 05:04:14;;;;;;;;;20.33;20.33;;;;;13.26;99.80;101403.91;5030857;28;46200;-66
2023/05/12 05:06:40;;;;;;;;;22.33;20.33;;;;;13.28;99.22;101407.38;5034828;28;45220;-65
2023/05/12 05:09:05;;;;;;;;;20.33;17.00;;;;;13.22;98.56;101395.16;5035454;28;45407;-65
2023/05/12 05:11:31;;;;;;;;;21.00;17.67;;;;;13.25;98.23;101402.16;5035145;28;45321;-66
2023/05/12 05:13:56;;;;;;;;;19.67;17.33;;;;;13.34;99.03;101420.47;5034841;28;46141;-66
2023/05/12 05:16:23;;;;;;;;;20.67;18.67;;;;;13.25;99.33;101399.50;5034984;28;45318;-66
2023/05/12 05:18:48;;;;;;;;;17.33;17.00;;;;;13.34;98.84;101412.53;5034376;28;45405;-65
2023/05/12 05:21:14;;;;;;;;;23.33;19.00;;;;;13.39;100.00;101409.81;5035267;28;45340;-66
2023/05/12 05:23:40;;;;;;;;;15.00;15.00;;;;;13.40;98.33;101407.13;5034904;28;46955;-65
2023/05/12 05:26:06;;;;;;;;;22.00;16.67;;;;;13.45;98.71;101407.00;5034878;28;45402;-65
2023/05/12 05:28:31;;;;;;;;;22.67;19.00;;;;;13.46;99.02;101410.50;5034941;28;45540;-66
2023/05/12 05:30:57;;;;;;;;;18.67;16.00;;;;;13.50;98.62;101420.97;5034978;28;45356;-65
2023/05/12 05:33:22;;;;;;;;;11.67;11.33;;;;;13.39;98.33;101401.88;5034991;28;46724;-65
2023/05/12 05:35:48;;;;;;;;;18.33;16.00;;;;;13.45;98.02;101404.38;5034600;28;45221;-65
2023/05/12 05:38:13;;;;;;;;;19.33;16.33;;;;;13.48;97.95;101404.28;5034738;28;45410;-65
2023/05/12 05:40:39;;;;;;;;;21.00;17.33;;;;;13.38;98.42;101389.53;5035056;28;45189;-65
2023/05/12 05:43:05;;;;;;;;;16.67;12.00;;;;;13.62;98.37;101418.94;5034532;28;47102;-65
2023/05/12 05:45:31;;;;;;;;;18.67;16.33;;;;;13.57;97.19;101416.41;5034567;28;45416;-65
2023/05/12 05:47:56;;;;;;;;;20.00;17.00;;;;;13.64;98.82;101428.59;5034686;28;45387;-65
2023/05/12 05:50:21;;;;;;;;;21.67;18.00;;;;;13.68;97.61;101432.91;5033296;28;45548;-65
2023/05/12 05:52:47;;;;;;;;;22.67;20.67;;;;;13.68;97.09;101430.25;5032976;28;46518;-66
2023/05/12 05:55:12;;;;;;;;;23.33;19.00;;;;;13.66;97.37;101425.91;5034306;28;45452;-65
2023/05/12 05:57:37;;;;;;;;;20.67;17.67;;;;;13.67;97.10;101425.88;5034398;28;45366;-65
2023/05/12 06:00:09;;;;;;;;;69.25;55.00;;;;;13.58;97.78;101412.88;5034692;28;45337;-65
2023/05/12 06:02:35;;;;;;;;;25.33;17.67;;;;;13.77;95.70;101431.81;5034460;28;46497;-65
2023/05/12 06:05:01;;;;;;;;;23.00;19.00;;;;;13.74;96.64;101437.19;5034182;28;45553;-65
2023/05/12 06:07:26;;;;;;;;;14.33;14.33;;;;;13.76;95.66;101446.78;5034482;28;45288;-66
2023/05/12 06:09:53;;;;;;;;;16.33;13.33;;;;;13.74;94.87;101443.34;5034740;28;45517;-66
2023/05/12 06:12:18;;;;;;;;;15.67;13.00;;;;;13.75;94.32;101446.84;5034297;28;45368;-65
2023/05/12 06:14:43;;;;;;;;;12.00;10.67;;;;;13.74;94.48;101445.97;5034489;28;45382;-65
2023/05/12 06:17:09;;;;;;;;;10.75;9.75;;;;;13.68;94.09;101443.50;5034465;28;45369;-66
2023/05/12 06:19:34;;;;;;;;;9.00;8.00;;;;;13.70;94.00;101446.97;5034405;28;45347;-66
2023/05/12 06:21:59;;;;;;;;;12.33;9.33;;;;;13.61;93.46;101426.03;5034247;28;45461;-66
2023/05/12 06:24:25;;;;;;;;;17.75;12.75;;;;;13.68;93.64;101447.91;5034190;28;45452;-65
2023/05/12 06:26:50;;;;;;;;;17.33;16.33;;;;;13.75;93.82;101449.50;5034371;28;45304;-65
2023/05/12 06:29:16;;;;;;;;;12.33;11.67;;;;;13.58;93.60;101420.81;5033295;28;45445;-66
2023/05/12 06:31:41;;;;;;;;;16.33;14.67;;;;;13.71;94.02;101439.91;5033901;28;47048;-65
2023/05/12 06:34:06;;;;;;;;;14.50;13.00;;;;;13.70;94.08;101438.16;5034106;28;45404;-66
2023/05/12 06:36:32;;;;;;;;;14.33;12.67;;;;;13.68;94.24;101437.31;5034190;28;45727;-66
2023/05/12 06:38:58;;;;;;;;;14.67;12.00;;;;;13.73;92.13;101448.66;5034459;28;45305;-66
2023/05/12 06:41:24;;;;;;;;;11.67;11.00;;;;;13.73;92.29;101446.03;5033936;28;45332;-66
2023/05/12 06:43:49;;;;;;;;;10.00;10.00;;;;;13.66;90.33;101437.34;5033667;28;45366;-66
2023/05/12 06:46:15;;;;;;;;;13.25;11.75;;;;;13.68;91.14;101446.13;5033834;28;45451;-67
2023/05/12 06:48:40;;;;;;;;;11.67;10.33;;;;;13.68;91.99;101450.53;5034164;28;45394;-65
2023/05/12 06:51:06;;;;;;;;;19.33;13.33;;;;;13.71;91.77;101451.34;5033377;28;45486;-66
2023/05/12 06:53:32;;;;;;;;;13.00;13.00;;;;;13.72;91.60;101454.84;5036826;28;45242;-66
2023/05/12 06:55:58;;;;;;;;;16.00;13.00;;;;;13.71;91.17;101445.19;5036821;28;45489;-66
2023/05/12 06:58:23;;;;;;;;;14.33;13.33;;;;;13.71;91.61;101450.50;5037189;28;45456;-66
2023/05/12 07:00:48;;;;;;;;;12.75;12.75;;;;;13.72;92.71;101449.56;5036743;28;46245;-65
2023/05/12 07:03:14;;;;;;;;;15.25;10.50;;;;;13.78;92.66;101448.53;5036777;28;45449;-65
2023/05/12 07:05:40;;;;;;;;;9.75;9.75;;;;;13.71;91.45;101434.63;5035357;28;45559;-65
2023/05/12 07:08:05;;;;;;;;;16.25;13.00;;;;;13.72;91.63;101446.91;5036738;27;45482;-66
2023/05/12 07:10:32;;;;;;;;;10.00;8.67;;;;;13.73;90.88;101448.66;5036773;28;46734;-66
2023/05/12 07:12:57;;;;;;;;;16.00;13.50;;;;;13.75;91.51;101446.84;5036490;28;45480;-66
2023/05/12 07:15:23;;;;;;;;;13.50;10.50;;;;;13.67;91.33;101435.59;5035635;28;45417;-66
2023/05/12 07:17:48;;;;;;;;;9.25;9.25;;;;;13.69;91.57;101445.22;5036806;28;45476;-66
2023/05/12 07:20:14;;;;;;;;;10.50;10.00;;;;;13.72;90.70;101454.84;5036284;28;46234;-66
2023/05/12 07:22:40;;;;;;;;;11.25;10.00;;;;;13.61;90.56;101428.66;5036500;28;45222;-66
2023/05/12 07:25:06;;;;;;;;;12.67;11.33;;;;;13.58;91.00;101431.41;5036607;28;45417;-65
2023/05/12 07:27:31;;;;;;;;;8.00;8.00;;;;;13.63;89.54;101444.50;5036908;28;45479;-66
2023/05/12 07:29:57;;;;;;;;;11.75;11.00;;;;;13.47;89.97;101434.28;5036152;28;47407;-65
2023/05/12 07:32:22;;;;;;;;;7.75;7.75;;;;;13.51;90.44;101435.94;5036377;28;45411;-66
2023/05/12 07:34:47;;;;;;;;;14.25;9.00;;;;;13.50;90.62;101439.50;5036483;28;45447;-66
2023/05/12 07:37:12;;;;;;;;;13.50;9.00;;;;;13.53;91.96;101436.78;5036733;28;45219;-66
2023/05/12 07:39:38;;;;;;;;;7.50;7.50;;;;;13.45;91.25;101425.53;5036489;28;46591;-65
2023/05/12 07:42:04;;;;;;;;;10.25;9.25;;;;;13.54;93.26;101437.66;5046032;28;45362;-66
2023/05/12 07:44:29;;;;;;;;;10.00;10.00;;;;;13.30;91.20;101396.75;5046883;28;45331;-66
2023/05/12 07:46:55;;;;;;;;;6.50;6.50;;;;;13.50;91.44;101438.63;5036413;28;45814;-65
2023/05/12 07:49:22;;;;;;;;;14.50;10.50;;;;;13.40;91.82;101422.09;5036161;28;46419;-66
2023/05/12 07:51:47;;;;;;;;;9.50;9.50;;;;;13.34;91.35;101420.47;5030803;28;45551;-66
2023/05/12 07:54:12;;;;;;;;;12.00;9.67;;;;;13.43;90.55;101432.63;5042219;28;45290;-66
2023/05/12 07:56:38;;;;;;;;;8.25;6.00;;;;;13.39;92.07;101433.63;5044085;28;45258;-66
2023/05/12 07:59:03;;;;;;;;;10.75;7.75;;;;;13.33;92.15;101426.66;5033208;28;45455;-66
2023/05/12 08:01:28;;;;;;;;;5.25;5.25;;;;;13.40;91.51;101436.22;5033750;27;45234;-65
2023/05/12 08:03:54;;;;;;;;;5.25;5.25;;;;;13.40;91.54;101427.41;5034560;28;45385;-66
2023/05/12 08:06:19;;;;;;;;;4.00;4.00;;;;;13.40;91.07;101428.28;5035270;28;45518;-66
2023/05/12 08:08:45;;;;;;;;;6.25;5.50;;;;;13.29;90.39;101414.41;5035037;28;47202;-66
2023/05/12 08:11:11;;;;;;;;;8.00;5.00;;;;;13.38;90.42;101429.22;5035255;28;45368;-64
2023/05/12 08:13:37;;;;;;;;;7.00;6.25;;;;;13.33;90.33;101431.94;5035164;28;45396;-65
2023/05/12 08:16:02;;;;;;;;;7.25;6.00;;;;;13.29;91.51;101427.63;5035523;28;45275;-65
2023/05/12 08:18:28;;;;;;;;;7.50;5.50;;;;;13.32;92.48;101424.91;5034919;28;46422;-64
2023/05/12 08:20:54;;;;;;;;;9.25;6.00;;;;;13.26;91.77;101422.41;5035531;28;45434;-64
2023/05/12 08:23:19;;;;;;;;;4.25;4.25;;;;;13.35;91.60;101429.28;5036045;28;45426;-64
2023/05/12 08:25:47;;;;;;;;;4.00;4.00;;;;;13.32;91.59;101416.13;5035803;28;45345;-64
2023/05/12 08:28:12;;;;;;;;;4.50;4.00;;;;;13.29;90.92;101409.13;5035622;27;46664;-64
2023/05/12 08:30:38;;;;;;;;;5.25;4.50;;;;;13.23;91.13;101407.47;5035739;28;45290;-64
2023/05/12 08:33:03;;;;;;;;;5.50;5.50;;;;;13.27;90.88;101402.13;5035893;28;45441;-64
2023/05/12 08:35:29;;;;;;;;;3.50;3.50;;;;;13.37;89.91;101416.91;5033256;28;45440;-65
2023/05/12 08:37:55;;;;;;;;;3.75;3.50;;;;;13.29;89.65;101403.81;5034700;28;46608;-65
2023/05/12 08:40:22;;;;;;;;;3.75;3.75;;;;;13.28;90.01;101414.44;5034905;28;45556;-65
2023/05/12 08:43:10;;;;;;;;;8.75;5.25;;;;;12.89;89.37;101351.84;5034706;28;45463;-65
2023/05/12 08:45:37;;;;;;;;;6.25;4.00;;;;;13.19;90.87;101410.25;5032742;28;45386;-65
2023/05/12 08:48:04;;;;;;;;;5.25;5.00;;;;;12.94;90.57;101367.59;5032960;28;46504;-65
2023/05/12 08:50:30;;;;;;;;;5.00;4.25;;;;;13.09;91.16;101401.63;5031892;28;45267;-65
2023/05/12 08:52:57;;;;;;;;;3.25;3.00;;;;;13.14;91.58;101407.72;5034935;28;45326;-65
2023/05/12 08:55:25;;;;;;;;;6.25;4.00;;;;;13.12;91.90;101401.56;5034550;28;45398;-66
2023/05/12 08:57:51;;;;;;;;;6.00;4.00;;;;;13.11;91.71;101396.31;5035000;28;46274;-65
2023/05/12 09:00:19;;;;;;;;;6.00;3.25;;;;;13.16;91.40;101397.94;5033188;28;45348;-65
2023/05/12 09:02:46;;;;;;;;;4.25;2.50;;;;;13.18;91.00;101393.47;5041049;27;45380;-65
2023/05/12 09:05:12;;;;;;;;;1.00;1.00;;;;;13.19;90.69;101403.16;5036313;28;45589;-65
2023/05/12 09:07:43;;;;;;;;;4.50;4.50;;;;;13.14;92.56;101390.94;5033285;27;46436;-64
2023/05/12 09:10:15;;;;;;;;;5.50;3.25;;;;;13.16;90.67;101390.00;5027936;28;45469;-65
2023/05/12 09:12:43;;;;;;;;;2.75;2.75;;;;;13.19;90.33;101403.16;5032941;28;46342;-65
2023/05/12 09:15:13;;;;;;;;;4.00;2.00;;;;;13.10;92.03;101384.00;5032299;28;46075;-65
2023/05/12 09:17:39;;;;;;;;;3.00;2.00;;;;;13.13;91.33;101387.44;5047601;27;45438;-64
2023/05/12 09:20:06;;;;;;;;;3.00;3.00;;;;;13.15;92.31;101384.75;5033781;28;45449;-66
2023/05/12 09:22:33;;;;;;;;;3.00;2.25;;;;;13.15;93.06;101385.63;5033216;28;45513;-64
2023/05/12 09:24:59;;;;;;;;;4.25;2.50;;;;;13.23;91.63;101388.97;5026012;28;45518;-67
2023/05/12 09:27:28;;;;;;;;;5.50;4.75;;;;;13.23;92.26;101374.88;5035457;28;46735;-67
2023/05/12 09:29:54;;;;;;;;;4.00;4.00;;;;;13.30;92.69;101381.78;5054928;27;45307;-66
2023/05/12 09:32:31;;;;;;;;;3.00;3.00;;;;;13.33;92.29;101378.16;5055130;28;45352;-67
2023/05/12 09:35:01;;;;;;;;;3.50;3.50;;;;;13.22;93.18;101363.41;5042598;28;45406;-66
2023/05/12 09:37:32;;;;;;;;;7.75;6.75;;;;;13.23;100.00;101369.59;5046992;28;46404;-65
2023/05/12 09:39:59;;;;;;;;;2.00;2.00;;;;;13.19;100.00;101370.56;5054809;28;45363;-65
2023/05/12 09:42:28;;;;;;;;;3.00;3.00;;;;;13.17;100.00;101365.31;5038489;28;45253;-66
2023/05/12 09:45:08;;;;;;;;;2.00;1.75;;;;;13.11;100.00;101367.22;5032254;28;45491;-65
2023/05/12 09:47:36;;;;;;;;;2.00;2.00;;;;;13.09;99.80;101354.03;5036672;28;45779;-65
2023/05/12 09:50:02;;;;;;;;;3.75;3.75;;;;;13.12;95.69;101364.53;5034685;28;45500;-65
2023/05/12 09:52:31;;;;;;;;;3.00;3.00;;;;;13.15;95.18;101363.63;5034608;28;45373;-63
2023/05/12 09:55:12;;;;;;;;;3.00;2.00;;;;;13.11;95.06;101357.50;5029800;28;45394;-62
2023/05/12 09:57:43;;;;;;;;;5.00;4.00;;;;;13.15;98.46;101353.03;5049827;28;47056;-63
2023/05/12 10:00:12;;;;;;;;;6.50;6.50;;;;;13.07;96.15;101332.06;5031709;28;45562;-62
2023/05/12 10:02:41;;;;;;;;;2.00;2.00;;;;;13.19;95.98;101347.63;5029158;28;47072;-63
2023/05/12 10:05:12;;;;;;;;;2.00;2.00;;;;;13.13;95.18;101336.31;5031658;28;45456;-62
2023/05/12 10:07:39;;;;;;;;;3.00;2.00;;;;;13.10;94.91;101339.03;5033214;28;46673;-62
2023/05/12 10:10:06;;;;;;;;;2.25;2.25;;;;;13.20;94.67;101348.50;5037991;28;45463;-63
2023/05/12 10:12:34;;;;;;;;;2.00;2.00;;;;;13.16;95.19;101345.06;5036602;28;45436;-62
2023/05/12 10:15:01;;;;;;;;;3.00;1.75;;;;;13.12;96.04;101338.09;5031839;28;45382;-63
2023/05/12 10:17:27;;;;;;;;;3.00;2.00;;;;;13.15;95.34;101339.81;5033642;28;46267;-63
2023/05/12 10:19:53;;;;;;;;;6.00;2.75;;;;;12.97;95.10;101304.09;5033454;28;45404;-62
2023/05/12 10:22:20;;;;;;;;;2.75;2.75;;;;;13.15;95.63;101338.03;5033244;28;45465;-63
2023/05/12 10:24:47;;;;;;;;;3.00;2.00;;;;;13.15;94.90;101338.03;5029986;28;45545;-63
2023/05/12 10:27:15;;;;;;;;;5.75;4.00;;;;;13.19;97.11;101331.75;5044203;28;45386;-63
2023/05/12 10:29:42;;;;;;;;;3.75;3.75;;;;;13.06;96.40;101302.09;5035301;28;45420;-63
2023/05/12 10:32:07;;;;;;;;;5.00;4.00;;;;;13.21;95.72;101326.44;5031624;28;45169;-63
2023/05/12 10:34:35;;;;;;;;;7.75;6.50;;;;;13.26;96.87;101323.66;5027072;28;45371;-63
2023/05/12 10:37:07;;;;;;;;;7.50;6.00;;;;;13.30;97.47;101327.97;5030073;28;46561;-63
2023/05/12 10:39:33;;;;;;;;;10.50;7.00;;;;;13.05;98.18;101278.34;5032410;28;45623;-64
2023/05/12 10:42:07;;;;;;;;;13.00;10.00;;;;;13.35;98.06;101326.16;5027576;28;45591;-63
2023/05/12 10:44:37;;;;;;;;;9.50;9.00;;;;;13.35;98.29;101327.00;5033277;28;45354;-63
2023/05/12 10:47:13;;;;;;;;;12.50;10.50;;;;;13.38;99.84;101320.78;5027606;28;46500;-63
2023/05/12 10:49:40;;;;;;;;;9.25;9.25;;;;;13.22;99.12;101281.44;5031351;28;45516;-63
2023/05/12 10:52:06;;;;;;;;;15.33;14.67;;;;;13.50;98.59;101317.78;5034063;28;45480;-63
2023/05/12 10:54:43;;;;;;;;;14.00;13.25;;;;;13.54;99.70;101314.16;5029061;28;45344;-64
2023/05/12 10:57:19;;;;;;;;;15.67;15.67;;;;;13.62;99.00;101321.03;5032437;28;47552;-64
2023/05/12 10:59:51;;;;;;;;;23.00;18.00;;;;;13.69;99.40;101312.88;5032790;28;45586;-63
2023/05/12 11:02:18;;;;;;;;;16.67;15.67;;;;;13.74;99.35;101316.28;5031269;28;45301;-64
2023/05/12 11:04:52;;;;;;;;;18.00;16.00;;;;;13.71;99.75;101299.66;5033081;28;45328;-64
2023/05/12 11:07:30;;;;;;;;;19.00;19.00;;;;;13.88;98.84;101313.28;5030789;28;45377;-64
2023/05/12 11:09:57;;;;;;;;;21.33;18.67;;;;;13.92;100.00;101317.56;5052260;27;46579;-64